Time;durP1;ratioP1;P1;durP2;ratioP2;P2;SDS_P1;SDS_P2;PMS_P1;PMS_P2;Temp;Humidity;BMP_temperature;BMP_pressure;BME280_temperature;BME280_humidity;BME280_pressure;Samples;Min_cycle;Max_cycle;Signal;HPM_P1;HPM_P2
2022/10/11 00:00:54;;;;;;;4.20;3.90;;;23.60;68.20;;;;;;4880846;29;20455;-89
2022/10/11 00:03:25;;;;;;;4.53;4.17;;;23.60;68.20;;;;;;4880933;29;20492;-89
2022/10/11 00:05:56;;;;;;;4.07;3.77;;;23.60;68.20;;;;;;4880684;29;20440;-88
2022/10/11 00:08:24;;;;;;;4.50;4.07;;;23.60;68.20;;;;;;4880832;29;20460;-89
2022/10/11 00:11:01;;;;;;;4.33;4.00;;;23.60;68.20;;;;;;4862440;29;20452;-90
2022/10/11 00:13:30;;;;;;;3.60;3.30;;;23.60;68.20;;;;;;4873695;29;20468;-89
2022/10/11 00:15:58;;;;;;;5.50;4.30;;;23.60;68.30;;;;;;4880148;29;20523;-89
2022/10/11 00:18:26;;;;;;;4.17;3.70;;;23.60;68.30;;;;;;4880421;29;20847;-90
2022/10/11 00:21:01;;;;;;;4.30;3.90;;;23.60;68.20;;;;;;4881113;29;20813;-89
2022/10/11 00:23:29;;;;;;;3.80;3.50;;;23.60;68.20;;;;;;4881211;29;20488;-89
2022/10/11 00:26:00;;;;;;;4.40;4.00;;;23.60;68.20;;;;;;4878953;29;20835;-89
2022/10/11 00:28:29;;;;;;;3.70;3.40;;;23.60;68.20;;;;;;4880895;29;20465;-89
2022/10/11 00:30:57;;;;;;;4.00;3.60;;;23.60;68.20;;;;;;4880785;29;20467;-90
2022/10/11 00:33:25;;;;;;;3.80;3.50;;;23.60;68.30;;;;;;4878244;29;20824;-90
2022/10/11 00:35:53;;;;;;;4.33;3.93;;;23.60;68.20;;;;;;4880409;29;20465;-89
2022/10/11 00:38:22;;;;;;;4.20;3.90;;;23.60;68.20;;;;;;4880500;29;20536;-89
2022/10/11 00:40:50;;;;;;;3.83;3.60;;;23.60;68.30;;;;;;4880902;29;20459;-88
2022/10/11 00:43:21;;;;;;;3.73;3.47;;;23.60;68.20;;;;;;4880278;29;20467;-89
2022/10/11 00:46:06;;;;;;;3.40;3.10;;;23.60;68.30;;;;;;4878960;29;20464;-89
2022/10/11 00:48:40;;;;;;;4.03;3.73;;;23.60;68.30;;;;;;4879943;29;21052;-89
2022/10/11 00:51:17;;;;;;;4.07;3.63;;;23.60;68.30;;;;;;4880587;29;20459;-89
2022/10/11 00:53:47;;;;;;;3.70;3.40;;;23.60;68.30;;;;;;4879137;29;20974;-90
2022/10/11 00:56:20;;;;;;;4.47;3.63;;;23.60;68.30;;;;;;4876967;29;20463;-89
2022/10/11 00:58:50;;;;;;;4.13;3.83;;;23.60;68.30;;;;;;4881122;29;20452;-89
2022/10/11 01:01:18;;;;;;;3.93;3.53;;;23.60;68.30;;;;;;4879241;29;20931;-90
2022/10/11 01:03:46;;;;;;;3.87;3.57;;;23.50;68.30;;;;;;4880317;29;20502;-89
2022/10/11 01:06:14;;;;;;;4.27;3.97;;;23.60;68.30;;;;;;4880477;29;20475;-89
2022/10/11 01:08:43;;;;;;;3.73;3.43;;;23.50;68.30;;;;;;4880032;29;21269;-89
2022/10/11 01:11:16;;;;;;;3.83;3.43;;;23.50;68.20;;;;;;4876643;29;20529;-89
2022/10/11 01:13:57;;;;;;;4.07;2.90;;;23.50;68.30;;;;;;4876136;29;20460;-89
2022/10/11 01:16:33;;;;;;;3.50;3.30;;;23.50;68.30;;;;;;4877194;29;20831;-89
2022/10/11 01:19:14;;;;;;;3.30;2.70;;;23.50;68.20;;;;;;4877280;29;20475;-89
2022/10/11 01:21:48;;;;;;;3.30;3.10;;;23.50;68.30;;;;;;4877831;29;20451;-89
2022/10/11 01:24:38;;;;;;;3.57;3.27;;;23.50;68.20;;;;;;4873529;29;20485;-89
2022/10/11 01:27:33;;;;;;;4.43;3.50;;;23.50;68.20;;;;;;4878494;29;20469;-88
2022/10/11 01:30:31;;;;;;;3.23;2.97;;;23.50;68.20;;;;;;4877101;29;20474;-89
2022/10/11 01:33:13;;;;;;;2.97;2.77;;;23.50;68.20;;;;;;4857620;29;20477;-90
2022/10/11 01:35:49;;;;;;;5.63;3.23;;;23.50;68.30;;;;;;4879828;29;20478;-89
2022/10/11 01:38:21;;;;;;;4.47;4.10;;;23.50;68.20;;;;;;4879442;29;20432;-89
2022/10/11 01:40:52;;;;;;;3.37;3.17;;;23.50;68.20;;;;;;4879596;29;20448;-89
2022/10/11 01:43:25;;;;;;;3.90;3.37;;;23.50;68.20;;;;;;4880008;29;20487;-89
2022/10/11 01:45:58;;;;;;;3.40;3.10;;;23.50;68.20;;;;;;4879767;29;20455;-89
2022/10/11 01:48:26;;;;;;;3.63;3.13;;;23.50;68.20;;;;;;4878975;29;20461;-88
2022/10/11 01:50:57;;;;;;;3.30;2.90;;;23.50;68.20;;;;;;4879586;29;20476;-88
2022/10/11 01:53:47;;;;;;;3.47;3.17;;;23.50;68.20;;;;;;4879930;29;20449;-89
2022/10/11 01:56:29;;;;;;;3.33;3.07;;;23.50;68.20;;;;;;4879266;29;20570;-88
2022/10/11 01:59:15;;;;;;;2.83;2.57;;;23.50;68.20;;;;;;4879459;29;20456;-89
2022/10/11 02:01:57;;;;;;;2.50;2.30;;;23.50;68.20;;;;;;4875576;29;20795;-89
2022/10/11 02:04:30;;;;;;;2.90;2.70;;;23.50;68.20;;;;;;4877425;29;21696;-90
2022/10/11 02:07:06;;;;;;;3.10;2.90;;;23.50;68.20;;;;;;4877994;29;20488;-89
2022/10/11 02:09:42;;;;;;;3.30;3.03;;;23.50;68.10;;;;;;4879959;29;20443;-89
2022/10/11 02:12:12;;;;;;;3.07;2.87;;;23.50;68.10;;;;;;4881224;29;20440;-88
2022/10/11 02:14:43;;;;;;;2.70;2.50;;;23.50;68.10;;;;;;4879110;29;20460;-89
2022/10/11 02:17:16;;;;;;;4.10;3.03;;;23.50;68.10;;;;;;4879760;29;20479;-88
2022/10/11 02:19:49;;;;;;;3.80;2.87;;;23.50;68.10;;;;;;4873041;29;20509;-89
2022/10/11 02:22:22;;;;;;;4.80;2.90;;;23.50;68.10;;;;;;4878590;29;20462;-89
2022/10/11 02:24:55;;;;;;;3.30;3.10;;;23.50;68.10;;;;;;4877503;29;20475;-88
2022/10/11 02:27:27;;;;;;;2.53;2.33;;;23.50;68.10;;;;;;4876417;29;20966;-89
2022/10/11 02:29:57;;;;;;;3.00;2.80;;;23.50;68.10;;;;;;4879092;29;20469;-89
2022/10/11 02:32:29;;;;;;;3.10;2.73;;;23.50;68.10;;;;;;4879125;29;20457;-89
2022/10/11 02:34:59;;;;;;;4.87;2.77;;;23.50;68.10;;;;;;4878442;29;20462;-89
2022/10/11 02:37:33;;;;;;;2.97;2.77;;;23.50;68.10;;;;;;4879531;29;20521;-88
2022/10/11 02:40:08;;;;;;;3.20;3.00;;;23.40;68.10;;;;;;4879929;29;20498;-89
2022/10/11 02:42:41;;;;;;;2.60;2.40;;;23.40;68.10;;;;;;4879509;29;20474;-89
2022/10/11 02:45:16;;;;;;;2.97;2.73;;;23.40;68.10;;;;;;4878557;29;20481;-89
2022/10/11 02:47:46;;;;;;;2.77;2.57;;;23.40;68.10;;;;;;4879079;29;20450;-88
2022/10/11 02:50:15;;;;;;;2.50;2.30;;;23.40;68.10;;;;;;4877914;29;20448;-89
2022/10/11 02:52:43;;;;;;;2.43;2.23;;;23.40;68.20;;;;;;4878737;29;20464;-90
2022/10/11 02:55:12;;;;;;;2.90;2.70;;;23.40;68.10;;;;;;4877650;29;20971;-88
2022/10/11 02:57:40;;;;;;;2.97;2.77;;;23.40;68.20;;;;;;4876935;29;20541;-89
2022/10/11 03:00:09;;;;;;;2.53;2.33;;;23.40;68.20;;;;;;4878303;29;20454;-88
2022/10/11 03:02:37;;;;;;;3.00;2.80;;;23.40;68.10;;;;;;4879310;29;20451;-89
2022/10/11 03:05:07;;;;;;;2.53;2.33;;;23.40;68.10;;;;;;4877357;29;20483;-88
2022/10/11 03:07:35;;;;;;;2.57;2.37;;;23.40;68.20;;;;;;4872278;29;20458;-88
2022/10/11 03:10:04;;;;;;;2.63;2.43;;;23.40;68.10;;;;;;4878545;29;20496;-89
2022/10/11 03:12:32;;;;;;;2.73;2.37;;;23.40;68.10;;;;;;4892989;29;20461;-89
2022/10/11 03:15:01;;;;;;;2.47;2.27;;;23.40;68.20;;;;;;4878174;29;20470;-89
2022/10/11 03:17:29;;;;;;;2.40;2.20;;;23.40;68.10;;;;;;4882192;29;20447;-89
2022/10/11 03:20:07;;;;;;;2.80;2.60;;;23.40;68.10;;;;;;4881378;29;20499;-89
2022/10/11 03:22:36;;;;;;;2.60;2.40;;;23.40;68.20;;;;;;4881417;29;20456;-89
2022/10/11 03:25:05;;;;;;;3.03;2.80;;;23.40;68.20;;;;;;4877425;29;20493;-88
2022/10/11 03:27:33;;;;;;;3.03;2.83;;;23.40;68.10;;;;;;4876785;29;20528;-88
2022/10/11 03:30:02;;;;;;;2.63;2.43;;;23.40;68.10;;;;;;4881074;29;20463;-89
2022/10/11 03:32:30;;;;;;;2.37;2.17;;;23.40;68.10;;;;;;4881012;29;21171;-89
2022/10/11 03:34:58;;;;;;;2.60;2.20;;;23.40;68.10;;;;;;4880923;29;20490;-89
2022/10/11 03:37:28;;;;;;;2.20;2.00;;;23.40;68.10;;;;;;4880953;29;20456;-89
2022/10/11 03:39:56;;;;;;;2.30;2.20;;;23.40;68.10;;;;;;4880801;29;20466;-89
2022/10/11 03:42:24;;;;;;;2.53;2.33;;;23.40;68.10;;;;;;4881137;29;20834;-88
2022/10/11 03:44:52;;;;;;;2.50;2.40;;;23.40;68.10;;;;;;4881428;29;20497;-89
2022/10/11 03:47:20;;;;;;;3.03;2.60;;;23.40;68.10;;;;;;4881487;29;20449;-89
2022/10/11 03:49:49;;;;;;;3.80;2.90;;;23.40;68.10;;;;;;4881322;29;20439;-89
2022/10/11 03:52:17;;;;;;;2.33;2.23;;;23.40;68.10;;;;;;4880283;29;20437;-88
2022/10/11 03:54:46;;;;;;;2.57;2.37;;;23.40;68.10;;;;;;4862285;29;20539;-88
2022/10/11 03:57:14;;;;;;;2.50;2.30;;;23.30;68.10;;;;;;4878185;29;20458;-89
2022/10/11 03:59:43;;;;;;;2.20;2.10;;;23.30;68.10;;;;;;4881588;29;21069;-89
2022/10/11 04:02:11;;;;;;;2.70;2.50;;;23.30;68.10;;;;;;4880448;29;20562;-89
2022/10/11 04:04:39;;;;;;;2.27;2.17;;;23.30;68.10;;;;;;4880690;29;20488;-89
2022/10/11 04:07:07;;;;;;;2.90;2.40;;;23.30;68.10;;;;;;4881056;29;20811;-90
2022/10/11 04:09:36;;;;;;;2.80;2.53;;;23.30;68.10;;;;;;4881182;29;20432;-88
2022/10/11 04:12:05;;;;;;;2.40;2.10;;;23.30;68.10;;;;;;4877732;29;20948;-89
2022/10/11 04:14:33;;;;;;;3.43;2.10;;;23.30;68.10;;;;;;4878865;29;21421;-89
2022/10/11 04:17:02;;;;;;;2.43;2.23;;;23.30;68.10;;;;;;4875746;29;20539;-89
2022/10/11 04:19:30;;;;;;;3.27;2.60;;;23.30;68.10;;;;;;4875180;29;20515;-89
2022/10/11 04:21:58;;;;;;;2.83;2.30;;;23.30;68.10;;;;;;4878606;29;20477;-88
2022/10/11 04:24:26;;;;;;;2.40;2.30;;;23.30;68.10;;;;;;4879243;29;20955;-89
2022/10/11 04:26:54;;;;;;;2.90;2.40;;;23.30;68.50;;;;;;4877526;29;20472;-89
2022/10/11 04:29:23;;;;;;;2.10;1.87;;;23.30;68.50;;;;;;4879501;29;20472;-88
2022/10/11 04:31:59;;;;;;;2.33;2.10;;;23.30;68.40;;;;;;4877377;29;20472;-89
2022/10/11 04:34:27;;;;;;;1.90;1.80;;;23.30;68.30;;;;;;4880836;29;20458;-88
2022/10/11 04:36:55;;;;;;;1.97;1.87;;;23.30;68.40;;;;;;4869586;29;20538;-89
2022/10/11 04:39:24;;;;;;;2.23;2.10;;;23.30;68.40;;;;;;4873844;29;20958;-89
2022/10/11 04:41:52;;;;;;;2.30;2.00;;;23.30;68.40;;;;;;4876251;29;20550;-89
2022/10/11 04:44:20;;;;;;;2.20;2.10;;;23.30;68.40;;;;;;4880387;29;20545;-89
2022/10/11 04:46:49;;;;;;;2.03;1.93;;;23.30;68.40;;;;;;4878493;29;20579;-88
2022/10/11 04:49:17;;;;;;;2.00;1.90;;;23.30;68.40;;;;;;4879046;29;21423;-84
2022/10/11 04:51:45;;;;;;;3.80;2.90;;;23.30;68.50;;;;;;4875702;29;20463;-89
2022/10/11 04:54:14;;;;;;;4.90;2.20;;;23.30;68.50;;;;;;4877725;29;20471;-88
2022/10/11 04:56:42;;;;;;;2.30;2.10;;;23.30;68.50;;;;;;4870078;29;20476;-88
2022/10/11 04:59:10;;;;;;;3.00;2.30;;;23.30;68.50;;;;;;4868780;29;20472;-87
2022/10/11 05:01:38;;;;;;;2.60;2.40;;;23.30;68.40;;;;;;4871912;29;20484;-86
2022/10/11 05:04:08;;;;;;;2.80;1.90;;;23.30;68.40;;;;;;4871296;29;20484;-86
2022/10/11 05:06:36;;;;;;;2.90;2.13;;;23.30;68.50;;;;;;4868360;29;20512;-87
2022/10/11 05:09:04;;;;;;;2.70;2.30;;;23.30;68.80;;;;;;4874750;29;20823;-87
2022/10/11 05:11:32;;;;;;;4.27;2.40;;;23.30;68.70;;;;;;4870785;29;20473;-85
2022/10/11 05:14:00;;;;;;;2.67;2.30;;;23.30;68.90;;;;;;4873323;29;20464;-87
2022/10/11 05:16:29;;;;;;;3.17;2.00;;;23.30;68.80;;;;;;4875052;29;20479;-87
2022/10/11 05:18:57;;;;;;;3.80;2.10;;;23.30;68.80;;;;;;4878152;29;21001;-88
2022/10/11 05:21:28;;;;;;;3.27;2.00;;;23.30;68.70;;;;;;4878703;29;20508;-89
2022/10/11 05:23:57;;;;;;;3.73;2.10;;;23.30;68.60;;;;;;4873580;29;20480;-86
2022/10/11 05:26:27;;;;;;;3.23;2.30;;;23.30;68.60;;;;;;4869942;29;20482;-84
2022/10/11 05:28:55;;;;;;;2.23;2.03;;;23.30;68.60;;;;;;4869214;29;20493;-86
2022/10/11 05:31:23;;;;;;;2.20;2.00;;;23.30;68.60;;;;;;4874724;29;20465;-88
2022/10/11 05:33:52;;;;;;;2.20;2.10;;;23.30;68.60;;;;;;4870425;29;20468;-86
2022/10/11 05:36:20;;;;;;;2.60;2.40;;;23.30;68.60;;;;;;4867071;29;20472;-86
2022/10/11 05:38:49;;;;;;;4.20;2.47;;;23.30;68.50;;;;;;4867507;29;20468;-87
2022/10/11 05:41:17;;;;;;;3.67;2.13;;;23.30;68.50;;;;;;4872670;29;20488;-86
2022/10/11 05:43:46;;;;;;;2.83;2.43;;;23.30;68.40;;;;;;4870609;29;20461;-86
2022/10/11 05:46:14;;;;;;;2.40;2.20;;;23.30;68.40;;;;;;4869653;29;20483;-87
2022/10/11 05:48:42;;;;;;;5.07;3.23;;;23.30;68.30;;;;;;4863964;29;20486;-86
2022/10/11 05:51:11;;;;;;;4.17;2.93;;;23.30;68.30;;;;;;4868166;29;20495;-86
2022/10/11 05:53:40;;;;;;;2.70;2.50;;;23.30;68.30;;;;;;4873488;29;20468;-86
2022/10/11 05:56:20;;;;;;;3.60;2.70;;;23.30;68.30;;;;;;4870189;29;20505;-86
2022/10/11 05:58:48;;;;;;;2.10;2.00;;;23.30;68.30;;;;;;4869274;29;20467;-86
2022/10/11 06:01:18;;;;;;;4.47;2.50;;;23.30;68.20;;;;;;4865529;29;20463;-86
2022/10/11 06:03:46;;;;;;;2.57;2.30;;;23.30;68.30;;;;;;4871713;29;20459;-86
2022/10/11 06:06:15;;;;;;;4.93;3.70;;;23.30;68.20;;;;;;4863311;29;20483;-86
2022/10/11 06:08:43;;;;;;;2.40;2.20;;;23.30;68.20;;;;;;4870836;29;20474;-86
2022/10/11 06:11:13;;;;;;;2.60;2.40;;;23.30;68.20;;;;;;4869819;29;21042;-86
2022/10/11 06:13:43;;;;;;;5.77;2.70;;;23.30;68.20;;;;;;4868675;29;20469;-86
2022/10/11 06:16:12;;;;;;;4.83;2.43;;;23.30;68.20;;;;;;4863001;29;20461;-86
2022/10/11 06:18:40;;;;;;;2.50;2.30;;;23.30;68.10;;;;;;4866495;29;20501;-87
2022/10/11 06:21:08;;;;;;;2.97;2.77;;;23.30;68.10;;;;;;4869243;29;20492;-87
2022/10/11 06:23:37;;;;;;;2.30;2.17;;;23.30;68.10;;;;;;4871735;29;20482;-87
2022/10/11 06:26:06;;;;;;;4.27;2.47;;;23.30;68.10;;;;;;4875055;29;20489;-88
2022/10/11 06:28:37;;;;;;;3.20;2.10;;;23.30;68.10;;;;;;4871017;29;20486;-87
2022/10/11 06:31:07;;;;;;;2.60;2.20;;;23.30;68.10;;;;;;4876216;29;20472;-91
2022/10/11 06:33:35;;;;;;;2.10;2.00;;;23.30;68.10;;;;;;4870099;29;20473;-89
2022/10/11 06:36:06;;;;;;;3.10;2.40;;;23.30;68.10;;;;;;4876851;29;20534;-88
2022/10/11 06:38:35;;;;;;;3.20;2.90;;;23.30;68.00;;;;;;4873192;29;20463;-85
2022/10/11 06:41:11;;;;;;;2.47;2.30;;;23.30;68.00;;;;;;4886473;29;20466;-87
2022/10/11 06:43:39;;;;;;;2.93;2.63;;;23.30;68.10;;;;;;4872918;29;20839;-87
2022/10/11 06:46:09;;;;;;;2.33;2.07;;;23.30;68.40;;;;;;4873980;29;20842;-87
2022/10/11 06:48:39;;;;;;;2.70;2.40;;;23.30;68.50;;;;;;4870262;29;20464;-88
2022/10/11 06:51:08;;;;;;;3.00;2.70;;;23.30;68.60;;;;;;4874614;29;20836;-87
2022/10/11 06:53:36;;;;;;;2.37;2.17;;;23.30;68.60;;;;;;4872118;29;20970;-87
2022/10/11 06:56:04;;;;;;;2.40;2.20;;;23.40;68.60;;;;;;4873544;29;20460;-89
2022/10/11 06:58:33;;;;;;;3.00;2.70;;;23.40;68.60;;;;;;4878500;29;20463;-86
2022/10/11 07:01:01;;;;;;;2.13;2.03;;;23.40;68.60;;;;;;4871641;29;20816;-86
2022/10/11 07:03:31;;;;;;;2.77;2.57;;;23.50;68.60;;;;;;4872092;29;20461;-86
2022/10/11 07:06:00;;;;;;;2.10;1.90;;;23.50;68.60;;;;;;4872453;29;20472;-87
2022/10/11 07:08:30;;;;;;;2.60;1.87;;;23.50;68.60;;;;;;4876139;29;20512;-85
2022/10/11 07:11:02;;;;;;;3.43;2.17;;;23.50;68.60;;;;;;4880999;29;20461;-87
2022/10/11 07:13:30;;;;;;;2.53;2.33;;;23.50;68.60;;;;;;4877492;29;21246;-87
2022/10/11 07:16:00;;;;;;;3.37;2.03;;;23.50;68.60;;;;;;4879442;29;20470;-87
2022/10/11 07:18:31;;;;;;;3.33;3.00;;;23.60;68.60;;;;;;4878385;29;20484;-85
2022/10/11 07:21:02;;;;;;;3.30;3.00;;;23.60;68.60;;;;;;4874697;29;20512;-85
2022/10/11 07:23:30;;;;;;;2.57;2.33;;;23.60;68.60;;;;;;4876872;29;20469;-85
2022/10/11 07:25:58;;;;;;;5.23;2.90;;;23.60;68.50;;;;;;4878631;29;20524;-85
2022/10/11 07:28:27;;;;;;;2.47;1.90;;;23.70;68.50;;;;;;4879078;29;20457;-86
2022/10/11 07:30:55;;;;;;;3.07;2.70;;;23.70;68.40;;;;;;4875387;29;20521;-85
2022/10/11 07:33:24;;;;;;;3.03;2.83;;;23.70;68.50;;;;;;4875850;29;20474;-86
2022/10/11 07:35:57;;;;;;;3.20;2.77;;;23.70;68.50;;;;;;4876809;29;20460;-85
2022/10/11 07:38:25;;;;;;;2.57;2.37;;;23.70;68.50;;;;;;4872524;29;20564;-83
2022/10/11 07:40:53;;;;;;;3.10;2.80;;;23.80;68.50;;;;;;4877413;29;20466;-86
2022/10/11 07:43:21;;;;;;;2.97;2.60;;;23.80;68.30;;;;;;4877373;29;20453;-85
2022/10/11 07:45:53;;;;;;;2.53;2.23;;;23.80;68.30;;;;;;4873538;29;20472;-86
2022/10/11 07:48:21;;;;;;;3.13;2.63;;;23.80;68.30;;;;;;4876605;29;20481;-85
2022/10/11 07:50:49;;;;;;;3.67;3.40;;;23.80;68.30;;;;;;4874533;29;20455;-85
2022/10/11 07:53:19;;;;;;;3.20;2.90;;;23.80;68.30;;;;;;4874184;29;20463;-85
2022/10/11 07:55:47;;;;;;;4.50;2.80;;;23.90;68.30;;;;;;4877763;29;20956;-85
2022/10/11 07:58:15;;;;;;;2.50;2.37;;;23.90;68.20;;;;;;4875888;29;20471;-85
2022/10/11 08:00:43;;;;;;;3.10;2.57;;;23.90;68.20;;;;;;4878223;29;20958;-84
2022/10/11 08:03:12;;;;;;;3.60;2.70;;;23.90;68.20;;;;;;4879255;29;20494;-85
2022/10/11 08:05:40;;;;;;;3.80;3.43;;;23.90;68.20;;;;;;4878763;29;20470;-85
2022/10/11 08:08:09;;;;;;;4.30;3.17;;;23.90;68.20;;;;;;4875350;29;20994;-84
2022/10/11 08:10:38;;;;;;;2.80;2.60;;;23.90;68.20;;;;;;4872822;29;20462;-83
2022/10/11 08:13:07;;;;;;;3.83;2.93;;;24.00;68.20;;;;;;4873619;29;20453;-87
2022/10/11 08:15:35;;;;;;;4.93;3.27;;;24.00;68.20;;;;;;4879675;29;20482;-85
2022/10/11 08:18:04;;;;;;;3.70;3.20;;;24.00;68.20;;;;;;4878177;29;20478;-86
2022/10/11 08:20:32;;;;;;;2.77;2.60;;;24.00;68.20;;;;;;4877780;29;21272;-85
2022/10/11 08:23:00;;;;;;;2.80;2.60;;;24.00;68.10;;;;;;4878338;29;20463;-85
2022/10/11 08:25:28;;;;;;;3.03;2.63;;;24.00;68.10;;;;;;4878772;29;20486;-83
2022/10/11 08:27:58;;;;;;;2.60;2.40;;;24.00;68.10;;;;;;4874225;29;20573;-83
2022/10/11 08:30:26;;;;;;;2.40;2.27;;;24.00;68.10;;;;;;4878709;29;20943;-84
2022/10/11 08:32:54;;;;;;;3.27;2.87;;;24.10;68.00;;;;;;4876082;29;20456;-84
2022/10/11 08:35:22;;;;;;;2.73;2.50;;;24.10;67.90;;;;;;4876981;29;20470;-87
2022/10/11 08:37:50;;;;;;;2.83;2.53;;;24.10;67.90;;;;;;4876216;29;20774;-85
2022/10/11 08:40:21;;;;;;;5.30;2.47;;;24.10;67.90;;;;;;4876792;29;20471;-85
2022/10/11 08:42:56;;;;;;;2.50;2.30;;;24.10;67.80;;;;;;4876094;29;20469;-84
2022/10/11 08:45:32;;;;;;;3.43;2.87;;;24.20;67.80;;;;;;4877780;29;20519;-86
2022/10/11 08:48:11;;;;;;;2.33;2.20;;;24.20;67.80;;;;;;4877644;29;20481;-86
2022/10/11 08:50:39;;;;;;;3.53;2.73;;;24.20;67.80;;;;;;4874484;29;20450;-85
2022/10/11 08:53:18;;;;;;;2.77;2.57;;;24.20;67.70;;;;;;4878922;29;20462;-85
2022/10/11 08:55:50;;;;;;;3.47;3.17;;;24.20;67.80;;;;;;4878179;29;20460;-87
2022/10/11 08:58:22;;;;;;;4.37;3.00;;;24.30;67.70;;;;;;4879689;29;20451;-84
2022/10/11 09:00:54;;;;;;;3.07;2.60;;;24.30;67.70;;;;;;4877888;29;20961;-86
2022/10/11 09:03:29;;;;;;;3.20;2.60;;;24.30;67.70;;;;;;4879259;29;20450;-90
2022/10/11 09:06:06;;;;;;;3.20;2.93;;;24.30;67.70;;;;;;4878774;29;20814;-84
2022/10/11 09:08:53;;;;;;;2.47;2.27;;;24.30;67.70;;;;;;4879296;29;20491;-84
2022/10/11 09:11:32;;;;;;;3.73;2.73;;;24.30;67.70;;;;;;4879073;29;20448;-84
2022/10/11 09:14:12;;;;;;;2.70;2.50;;;24.30;67.60;;;;;;4878835;29;20460;-84
2022/10/11 09:16:54;;;;;;;2.67;2.47;;;24.30;67.60;;;;;;4875418;29;20994;-84
2022/10/11 09:19:48;;;;;;;2.70;2.50;;;24.30;67.60;;;;;;4875353;29;20517;-86
2022/10/11 09:22:26;;;;;;;3.20;3.00;;;24.30;67.60;;;;;;4876872;29;20453;-86
2022/10/11 09:25:10;;;;;;;3.30;2.40;;;24.40;67.40;;;;;;4874319;29;20473;-85
2022/10/11 09:27:44;;;;;;;3.10;2.80;;;24.40;67.40;;;;;;4876106;29;20488;-86
2022/10/11 09:30:30;;;;;;;2.33;2.10;;;24.40;67.40;;;;;;4873272;29;20818;-85
2022/10/11 09:33:10;;;;;;;2.83;2.60;;;24.40;67.50;;;;;;4878860;29;20456;-87
2022/10/11 09:35:41;;;;;;;2.67;2.47;;;24.40;67.40;;;;;;4868701;29;20458;-87
2022/10/11 09:38:17;;;;;;;2.30;2.10;;;24.40;67.40;;;;;;4878525;29;20451;-88
2022/10/11 09:40:58;;;;;;;2.80;2.60;;;24.40;67.40;;;;;;4872588;29;20471;-84
2022/10/11 09:43:26;;;;;;;2.80;2.57;;;24.40;67.40;;;;;;4878667;29;20482;-85
2022/10/11 09:45:54;;;;;;;2.67;2.47;;;24.50;67.40;;;;;;4878671;29;20937;-82
2022/10/11 09:48:28;;;;;;;3.60;3.10;;;24.50;67.20;;;;;;4877050;29;20486;-84
2022/10/11 09:51:02;;;;;;;4.07;2.60;;;24.50;67.30;;;;;;4876357;29;20441;-83
2022/10/11 09:53:49;;;;;;;3.30;2.50;;;24.50;67.20;;;;;;4876768;29;20796;-84
2022/10/11 09:56:18;;;;;;;3.10;2.90;;;24.60;67.20;;;;;;4879056;29;20558;-82
2022/10/11 09:58:46;;;;;;;2.47;2.27;;;24.60;67.20;;;;;;4878418;29;20457;-87
2022/10/11 10:01:24;;;;;;;2.73;2.57;;;24.60;67.20;;;;;;4878556;29;20802;-85
2022/10/11 10:04:09;;;;;;;2.70;2.30;;;24.60;67.10;;;;;;4876422;29;20459;-85
2022/10/11 10:06:38;;;;;;;2.30;2.10;;;24.60;67.10;;;;;;4876086;29;20469;-86
2022/10/11 10:09:28;;;;;;;3.60;2.60;;;24.70;67.00;;;;;;4873903;29;20474;-84
2022/10/11 10:11:57;;;;;;;3.10;2.57;;;24.70;66.90;;;;;;4869670;29;20449;-83
2022/10/11 10:14:29;;;;;;;2.70;2.50;;;24.70;66.90;;;;;;4874790;29;20457;-83
2022/10/11 10:17:02;;;;;;;2.43;2.30;;;24.70;67.00;;;;;;4878612;29;20472;-84
2022/10/11 10:19:40;;;;;;;5.20;2.40;;;24.70;67.00;;;;;;4877855;29;20510;-83
2022/10/11 10:22:19;;;;;;;2.67;2.47;;;24.70;67.00;;;;;;4878596;29;20522;-84
2022/10/11 10:24:48;;;;;;;3.30;3.00;;;24.70;67.00;;;;;;4876175;29;20465;-85
2022/10/11 10:27:20;;;;;;;3.07;2.87;;;24.70;67.10;;;;;;4881769;29;21461;-85
2022/10/11 10:30:13;;;;;;;2.90;2.70;;;24.60;67.20;;;;;;4882296;29;20500;-85
2022/10/11 10:32:55;;;;;;;3.40;2.90;;;24.60;67.20;;;;;;4882368;29;20463;-85
2022/10/11 10:35:31;;;;;;;2.60;2.40;;;24.60;67.20;;;;;;4878728;29;20471;-85
2022/10/11 10:38:15;;;;;;;2.43;2.30;;;24.60;67.30;;;;;;4881548;29;20529;-84
2022/10/11 10:40:47;;;;;;;2.17;2.07;;;24.60;67.30;;;;;;4881644;29;20463;-83
2022/10/11 10:43:18;;;;;;;2.60;2.40;;;24.60;67.20;;;;;;4881259;29;20808;-83
2022/10/11 10:46:22;;;;;;;2.40;2.20;;;24.60;67.30;;;;;;4873262;29;20831;-86
2022/10/11 10:48:59;;;;;;;2.47;2.30;;;24.60;67.30;;;;;;4879881;29;20487;-85
2022/10/11 10:52:02;;;;;;;2.50;2.30;;;24.60;67.30;;;;;;4879519;29;20471;-83
2022/10/11 10:54:40;;;;;;;2.73;2.53;;;24.60;67.30;;;;;;4881457;29;20463;-81
2022/10/11 10:57:17;;;;;;;2.87;2.67;;;24.60;67.20;;;;;;4876023;29;20470;-82
2022/10/11 11:00:04;;;;;;;2.70;2.50;;;24.60;67.50;;;;;;4880601;29;20482;-85
2022/10/11 11:02:41;;;;;;;4.77;2.90;;;24.60;67.80;;;;;;4879781;29;20474;-83
2022/10/11 11:05:21;;;;;;;2.90;2.43;;;24.60;68.10;;;;;;4881706;29;20539;-84
2022/10/11 11:07:58;;;;;;;2.50;2.40;;;24.60;67.90;;;;;;4878457;29;20500;-82
2022/10/11 11:10:34;;;;;;;2.17;1.97;;;24.60;67.80;;;;;;4871824;29;20457;-81
2022/10/11 11:13:17;;;;;;;2.30;2.10;;;24.60;67.70;;;;;;4875492;29;20459;-82
2022/10/11 11:15:53;;;;;;;4.50;2.17;;;24.60;67.60;;;;;;4871378;29;20483;-84
2022/10/11 11:18:29;;;;;;;2.83;2.37;;;24.60;67.50;;;;;;4878208;29;20983;-82
2022/10/11 11:21:19;;;;;;;4.70;2.43;;;24.60;67.50;;;;;;4884370;29;21099;-82
2022/10/11 11:24:00;;;;;;;2.30;2.10;;;24.60;67.50;;;;;;4877659;29;20468;-84
2022/10/11 11:26:34;;;;;;;3.10;2.80;;;24.60;67.50;;;;;;4879940;29;20460;-86
2022/10/11 11:29:15;;;;;;;3.20;3.00;;;24.60;67.50;;;;;;4878917;29;20482;-83
2022/10/11 11:31:59;;;;;;;2.73;2.53;;;24.60;67.50;;;;;;4876785;29;20477;-84
2022/10/11 11:34:35;;;;;;;3.40;2.40;;;24.70;67.50;;;;;;4877341;29;20495;-83
2022/10/11 11:37:09;;;;;;;2.70;2.50;;;24.70;67.40;;;;;;4875828;29;20462;-84
2022/10/11 11:39:43;;;;;;;2.50;2.30;;;24.70;67.30;;;;;;4874310;29;20464;-83
2022/10/11 11:42:15;;;;;;;2.70;2.50;;;24.70;67.20;;;;;;4878964;29;20458;-81
2022/10/11 11:44:46;;;;;;;2.40;2.20;;;24.70;67.20;;;;;;4875939;29;20500;-81
2022/10/11 11:47:22;;;;;;;4.20;3.10;;;24.70;67.10;;;;;;4876341;29;20471;-81
2022/10/11 11:49:58;;;;;;;4.23;2.70;;;24.70;67.00;;;;;;4875464;29;20485;-81
2022/10/11 11:52:32;;;;;;;5.47;2.87;;;24.70;66.90;;;;;;4878456;29;20455;-80
2022/10/11 11:55:09;;;;;;;2.53;2.33;;;24.70;66.90;;;;;;4872651;29;20451;-79
2022/10/11 11:57:53;;;;;;;2.30;2.10;;;24.70;66.90;;;;;;4876789;29;20475;-80
2022/10/11 12:00:25;;;;;;;2.43;2.23;;;24.70;66.90;;;;;;4878898;29;20478;-80
2022/10/11 12:02:57;;;;;;;2.93;2.30;;;24.70;66.90;;;;;;4873410;29;20460;-79
2022/10/11 12:05:28;;;;;;;2.73;2.30;;;24.70;66.90;;;;;;4878050;29;20541;-80
2022/10/11 12:07:59;;;;;;;2.57;2.30;;;24.70;66.80;;;;;;4874917;29;20449;-81
2022/10/11 12:10:36;;;;;;;3.50;2.57;;;24.60;66.80;;;;;;4872388;29;20486;-80
2022/10/11 12:13:18;;;;;;;4.07;3.70;;;24.60;66.80;;;;;;4869970;29;20896;-79
2022/10/11 12:16:00;;;;;;;1.97;1.87;;;24.60;66.80;;;;;;4875512;29;20466;-80
2022/10/11 12:18:30;;;;;;;4.10;2.43;;;24.60;66.80;;;;;;4876992;29;20494;-79
2022/10/11 12:21:04;;;;;;;2.40;2.00;;;24.60;66.80;;;;;;4878970;29;20498;-80
2022/10/11 12:23:45;;;;;;;2.73;2.17;;;24.60;66.80;;;;;;4876229;29;20476;-79
2022/10/11 12:26:32;;;;;;;3.03;2.40;;;24.60;66.80;;;;;;4879676;29;20459;-80
2022/10/11 12:29:23;;;;;;;2.47;2.33;;;24.60;66.80;;;;;;4878491;29;20484;-80
2022/10/11 12:32:31;;;;;;;2.40;2.30;;;24.60;66.80;;;;;;4879954;29;20492;-81
2022/10/11 12:35:32;;;;;;;3.00;2.50;;;24.60;66.80;;;;;;4875454;29;20472;-80
2022/10/11 12:38:06;;;;;;;4.10;2.50;;;24.60;66.80;;;;;;4875898;29;20473;-81
2022/10/11 12:40:40;;;;;;;2.60;2.23;;;24.60;66.80;;;;;;4877052;29;20978;-81
2022/10/11 12:43:35;;;;;;;3.83;2.70;;;24.60;66.80;;;;;;4872007;29;20466;-81
2022/10/11 12:46:39;;;;;;;3.20;2.90;;;24.60;66.80;;;;;;4866329;29;20556;-81
2022/10/11 12:49:24;;;;;;;2.67;2.23;;;24.60;66.80;;;;;;4875464;29;20489;-81
2022/10/11 12:51:59;;;;;;;4.20;2.53;;;24.60;67.10;;;;;;4874204;29;20458;-81
2022/10/11 12:54:50;;;;;;;5.57;3.07;;;24.50;67.40;;;;;;4872630;29;21002;-82
2022/10/11 12:57:49;;;;;;;3.60;2.53;;;24.50;67.50;;;;;;4872994;29;20476;-82
2022/10/11 13:00:25;;;;;;;9.23;2.97;;;24.60;67.60;;;;;;4873353;29;20459;-82
2022/10/11 13:02:53;;;;;;;4.43;2.40;;;24.60;67.70;;;;;;4877736;29;20528;-81
2022/10/11 13:05:25;;;;;;;3.43;2.70;;;24.60;67.60;;;;;;4875287;29;20481;-82
2022/10/11 13:07:55;;;;;;;3.57;2.87;;;24.60;67.70;;;;;;4877080;29;20467;-81
2022/10/11 13:10:28;;;;;;;5.60;2.60;;;24.60;67.50;;;;;;4871935;29;20477;-82
2022/10/11 13:13:03;;;;;;;3.90;2.80;;;24.60;67.60;;;;;;4876243;29;20486;-82
2022/10/11 13:15:32;;;;;;;3.40;2.43;;;24.70;67.70;;;;;;4877257;29;20462;-82
2022/10/11 13:18:01;;;;;;;2.83;2.40;;;24.70;67.70;;;;;;4875337;29;20458;-84